Time;durP1;ratioP1;P1;durP2;ratioP2;P2;SDS_P1;SDS_P2;PMS_P1;PMS_P2;Temp;Humidity;BMP_temperature;BMP_pressure;BME280_temperature;BME280_humidity;BME280_pressure;Samples;Min_cycle;Max_cycle;Signal;HPM_P1;HPM_P2
2023/12/01 00:00:29;;;;;;;;;;;;;;;;;;5056131;28;19932;-81
2023/12/01 00:02:56;;;;;;;;;;;;;;;;;;5055257;28;20331;-81
2023/12/01 00:05:22;;;;;;;;;;;;;;;;;;5055175;28;19925;-81
2023/12/01 00:07:48;;;;;;;;;;;;;;;;;;5054865;28;19924;-83
2023/12/01 00:10:15;;;;;;;;;;;;;;;;;;5054832;28;19931;-82
2023/12/01 00:12:41;;;;;;;;;;;;;;;;;;5055179;28;20011;-82
2023/12/01 00:15:08;;;;;;;;;;;;;;;;;;5054183;28;19925;-82
2023/12/01 00:17:34;;;;;;;;;;;;;;;;;;5054794;28;20305;-82
2023/12/01 00:20:00;;;;;;;;;;;;;;;;;;5054181;28;19932;-82
2023/12/01 00:22:26;;;;;;;;;;;;;;;;;;5054957;28;20015;-82
2023/12/01 00:24:53;;;;;;;;;;;;;;;;;;5054941;28;19931;-80
2023/12/01 00:27:19;;;;;;;;;;;;;;;;;;5055767;28;19932;-81
2023/12/01 00:29:45;;;;;;;;;;;;;;;;;;5055026;28;19970;-82
2023/12/01 00:32:11;;;;;;;;;;;;;;;;;;5054729;28;20012;-82
2023/12/01 00:34:38;;;;;;;;;;;;;;;;;;5055072;28;19925;-83
2023/12/01 00:37:09;;;;;;;;;;;;;;;;;;5055038;28;20470;-81
2023/12/01 00:39:35;;;;;;;;;;;;;;;;;;5055754;28;20367;-81
2023/12/01 00:42:01;;;;;;;;;;;;;;;;;;5055198;28;20011;-81
2023/12/01 00:44:27;;;;;;;;;;;;;;;;;;5055244;28;19925;-82
2023/12/01 00:46:54;;;;;;;;;;;;;;;;;;5055089;28;20355;-81
2023/12/01 00:49:20;;;;;;;;;;;;;;;;;;5055799;28;20019;-80
2023/12/01 00:51:46;;;;;;;;;;;;;;;;;;5054461;28;19931;-81
2023/12/01 00:54:12;;;;;;;;;;;;;;;;;;5054943;28;20465;-83
2023/12/01 00:56:39;;;;;;;;;;;;;;;;;;5054028;28;19925;-83
2023/12/01 00:59:05;;;;;;;;;;;;;;;;;;5054896;28;19931;-82
2023/12/01 01:01:31;;;;;;;;;;;;;;;;;;5055030;28;19992;-82
2023/12/01 01:03:58;;;;;;;;;;;;;;;;;;5055575;28;20020;-82
2023/12/01 01:06:25;;;;;;;;;;;;;;;;;;5054630;28;19925;-82
2023/12/01 01:08:51;;;;;;;;;;;;;;;;;;5055744;28;20021;-82
2023/12/01 01:11:17;;;;;;;;;;;;;;;;;;5054639;28;19928;-82
2023/12/01 01:13:43;;;;;;;;;;;;;;;;;;5055276;28;20008;-82
2023/12/01 01:16:10;;;;;;;;;;;;;;;;;;5053274;28;19924;-82
2023/12/01 01:18:36;;;;;;;;;;;;;;;;;;5054925;28;20416;-82
2023/12/01 01:21:02;;;;;;;;;;;;;;;;;;5054712;28;19925;-82
2023/12/01 01:23:29;;;;;;;;;;;;;;;;;;5055256;28;20310;-82
2023/12/01 01:25:55;;;;;;;;;;;;;;;;;;5055293;28;19978;-82
2023/12/01 01:28:29;;;;;;;;;;;;;;;;;;5054527;28;19925;-82
2023/12/01 01:30:57;;;;;;;;;;;;;;;;;;5055461;28;19948;-82
2023/12/01 01:33:23;;;;;;;;;;;;;;;;;;5054984;28;19979;-82
2023/12/01 01:35:50;;;;;;;;;;;;;;;;;;5054570;28;19925;-82
2023/12/01 01:38:16;;;;;;;;;;;;;;;;;;5054129;28;19925;-82
2023/12/01 01:40:42;;;;;;;;;;;;;;;;;;5055277;28;20011;-82
2023/12/01 01:43:08;;;;;;;;;;;;;;;;;;5054989;28;20015;-83
2023/12/01 01:45:35;;;;;;;;;;;;;;;;;;5054786;28;20019;-82
2023/12/01 01:48:01;;;;;;;;;;;;;;;;;;5053418;28;20031;-81
2023/12/01 01:50:27;;;;;;;;;;;;;;;;;;5054707;28;19925;-81
2023/12/01 01:52:54;;;;;;;;;;;;;;;;;;5054819;28;20015;-81
2023/12/01 01:55:20;;;;;;;;;;;;;;;;;;5053318;28;19975;-83
2023/12/01 01:57:46;;;;;;;;;;;;;;;;;;5054534;28;20355;-81
2023/12/01 02:00:16;;;;;;;;;;;;;;;;;;5054816;28;19963;-81
2023/12/01 02:02:42;;;;;;;;;;;;;;;;;;5054232;28;20012;-83
2023/12/01 02:05:13;;;;;;;;;;;;;;;;;;5055088;28;20027;-81
2023/12/01 02:07:41;;;;;;;;;;;;;;;;;;5054849;28;20007;-82
2023/12/01 02:10:15;;;;;;;;;;;;;;;;;;5053814;28;19925;-81
2023/12/01 02:12:41;;;;;;;;;;;;;;;;;;5053987;28;19929;-81
2023/12/01 02:15:10;;;;;;;;;;;;;;;;;;5054640;28;19925;-82
2023/12/01 02:17:37;;;;;;;;;;;;;;;;;;5054295;28;19925;-82
2023/12/01 02:20:05;;;;;;;;;;;;;;;;;;5057596;28;19952;-81
2023/12/01 02:22:31;;;;;;;;;;;;;;;;;;5055899;28;19925;-82
2023/12/01 02:24:58;;;;;;;;;;;;;;;;;;5058396;28;20331;-82
2023/12/01 02:27:24;;;;;;;;;;;;;;;;;;5057554;28;20012;-80
2023/12/01 02:29:51;;;;;;;;;;;;;;;;;;5058496;28;20035;-81
2023/12/01 02:32:17;;;;;;;;;;;;;;;;;;5057655;28;19925;-84
2023/12/01 02:34:45;;;;;;;;;;;;;;;;;;5057825;28;20391;-82
2023/12/01 02:37:11;;;;;;;;;;;;;;;;;;5057263;28;20339;-81
2023/12/01 02:39:38;;;;;;;;;;;;;;;;;;5057413;28;19924;-80
2023/12/01 02:42:04;;;;;;;;;;;;;;;;;;5057437;28;20302;-83
2023/12/01 02:44:31;;;;;;;;;;;;;;;;;;5057170;28;19924;-82
2023/12/01 02:46:57;;;;;;;;;;;;;;;;;;5057052;28;19962;-81
2023/12/01 02:49:24;;;;;;;;;;;;;;;;;;5057044;28;19928;-81
2023/12/01 02:51:50;;;;;;;;;;;;;;;;;;5057053;28;19974;-81
2023/12/01 02:54:16;;;;;;;;;;;;;;;;;;5056962;28;19925;-82
2023/12/01 02:56:42;;;;;;;;;;;;;;;;;;5057018;28;20298;-81
2023/12/01 02:59:08;;;;;;;;;;;;;;;;;;5057234;28;20016;-81
2023/12/01 03:01:34;;;;;;;;;;;;;;;;;;5056930;28;20004;-81
2023/12/01 03:04:00;;;;;;;;;;;;;;;;;;5055951;28;19925;-81
2023/12/01 03:06:29;;;;;;;;;;;;;;;;;;5056317;28;19931;-81
2023/12/01 03:08:55;;;;;;;;;;;;;;;;;;5056673;28;20301;-81
2023/12/01 03:11:21;;;;;;;;;;;;;;;;;;5056447;28;19925;-81
2023/12/01 03:13:48;;;;;;;;;;;;;;;;;;5056155;28;19925;-81
2023/12/01 03:16:14;;;;;;;;;;;;;;;;;;5057022;28;19929;-82
2023/12/01 03:18:42;;;;;;;;;;;;;;;;;;5056793;28;19925;-81
2023/12/01 03:21:12;;;;;;;;;;;;;;;;;;5057237;28;20353;-81
2023/12/01 03:23:39;;;;;;;;;;;;;;;;;;5057263;28;19983;-81
2023/12/01 03:26:07;;;;;;;;;;;;;;;;;;5056311;28;20012;-81
2023/12/01 03:28:34;;;;;;;;;;;;;;;;;;5057248;28;19929;-81
2023/12/01 03:31:00;;;;;;;;;;;;;;;;;;5055990;28;19949;-81
2023/12/01 03:33:27;;;;;;;;;;;;;;;;;;5057016;28;19960;-82
2023/12/01 03:35:53;;;;;;;;;;;;;;;;;;5056687;28;19932;-82
2023/12/01 03:38:19;;;;;;;;;;;;;;;;;;5056720;28;20401;-81
2023/12/01 03:40:45;;;;;;;;;;;;;;;;;;5057145;28;20008;-81
2023/12/01 03:43:12;;;;;;;;;;;;;;;;;;5056454;28;20276;-81
2023/12/01 03:45:38;;;;;;;;;;;;;;;;;;5056863;28;20019;-81
2023/12/01 03:48:04;;;;;;;;;;;;;;;;;;5056429;28;20004;-82
2023/12/01 03:50:30;;;;;;;;;;;;;;;;;;5055536;28;19932;-81
2023/12/01 03:52:57;;;;;;;;;;;;;;;;;;5054904;28;19925;-81
2023/12/01 03:55:24;;;;;;;;;;;;;;;;;;5055228;28;19978;-81
2023/12/01 03:57:52;;;;;;;;;;;;;;;;;;5054705;28;19974;-81
2023/12/01 04:00:18;;;;;;;;;;;;;;;;;;5056656;28;20456;-81
2023/12/01 04:02:47;;;;;;;;;;;;;;;;;;5055569;28;20345;-81
2023/12/01 04:05:17;;;;;;;;;;;;;;;;;;5056239;28;20310;-81
2023/12/01 04:07:45;;;;;;;;;;;;;;;;;;5054680;28;19978;-81
2023/12/01 04:10:11;;;;;;;;;;;;;;;;;;5056757;28;20375;-81
2023/12/01 04:12:39;;;;;;;;;;;;;;;;;;5055689;28;19987;-82
2023/12/01 04:15:05;;;;;;;;;;;;;;;;;;5055148;28;20302;-82
2023/12/01 04:17:32;;;;;;;;;;;;;;;;;;5054957;28;20015;-83
2023/12/01 04:20:01;;;;;;;;;;;;;;;;;;5055772;28;19925;-82
2023/12/01 04:22:27;;;;;;;;;;;;;;;;;;5055459;28;19967;-82
2023/12/01 04:24:55;;;;;;;;;;;;;;;;;;5055125;28;20015;-82
2023/12/01 04:27:21;;;;;;;;;;;;;;;;;;5054774;28;19929;-81
2023/12/01 04:29:47;;;;;;;;;;;;;;;;;;5054723;28;20357;-82
2023/12/01 04:32:14;;;;;;;;;;;;;;;;;;5053455;28;19929;-81
2023/12/01 04:34:40;;;;;;;;;;;;;;;;;;5055316;28;20015;-81
2023/12/01 04:37:09;;;;;;;;;;;;;;;;;;5054537;28;20024;-81
2023/12/01 04:39:34;;;;;;;;;;;;;;;;;;5053859;28;19925;-82
2023/12/01 04:42:00;;;;;;;;;;;;;;;;;;5052275;28;20375;-81
2023/12/01 04:44:27;;;;;;;;;;;;;;;;;;5054589;28;19960;-83
2023/12/01 04:46:55;;;;;;;;;;;;;;;;;;5053792;28;19931;-82
2023/12/01 04:49:21;;;;;;;;;;;;;;;;;;5054563;28;20418;-81
2023/12/01 04:51:48;;;;;;;;;;;;;;;;;;5053911;28;19947;-81
2023/12/01 04:54:14;;;;;;;;;;;;;;;;;;5054729;28;20019;-81
2023/12/01 04:56:40;;;;;;;;;;;;;;;;;;5053833;28;20371;-81
2023/12/01 04:59:07;;;;;;;;;;;;;;;;;;5054277;28;19928;-81
2023/12/01 05:01:36;;;;;;;;;;;;;;;;;;5053235;28;20298;-81
2023/12/01 05:04:02;;;;;;;;;;;;;;;;;;5054355;28;19925;-82
2023/12/01 05:06:28;;;;;;;;;;;;;;;;;;5053836;28;19947;-83
2023/12/01 05:08:54;;;;;;;;;;;;;;;;;;5053121;28;20378;-82
2023/12/01 05:11:20;;;;;;;;;;;;;;;;;;5053784;28;19925;-83
2023/12/01 05:13:46;;;;;;;;;;;;;;;;;;5053602;28;19925;-83
2023/12/01 05:16:13;;;;;;;;;;;;;;;;;;5052415;28;19924;-82
2023/12/01 05:18:39;;;;;;;;;;;;;;;;;;5053772;28;20363;-82
2023/12/01 05:21:08;;;;;;;;;;;;;;;;;;5052663;28;20303;-83
2023/12/01 05:23:34;;;;;;;;;;;;;;;;;;5052557;28;19929;-81
2023/12/01 05:26:00;;;;;;;;;;;;;;;;;;5053438;28;19931;-82
2023/12/01 05:28:27;;;;;;;;;;;;;;;;;;5054301;28;20020;-81
2023/12/01 05:30:54;;;;;;;;;;;;;;;;;;5052485;28;19924;-80
2023/12/01 05:33:20;;;;;;;;;;;;;;;;;;5054343;28;19925;-83
2023/12/01 05:35:46;;;;;;;;;;;;;;;;;;5054615;28;20011;-81
2023/12/01 05:38:13;;;;;;;;;;;;;;;;;;5054142;28;19925;-81
2023/12/01 05:40:39;;;;;;;;;;;;;;;;;;5055303;28;20356;-81
2023/12/01 05:43:05;;;;;;;;;;;;;;;;;;5053189;28;19924;-83
2023/12/01 05:45:32;;;;;;;;;;;;;;;;;;5053663;28;19931;-83
2023/12/01 05:47:59;;;;;;;;;;;;;;;;;;5052196;28;19982;-82
2023/12/01 05:50:25;;;;;;;;;;;;;;;;;;5054597;28;20019;-81
2023/12/01 05:52:52;;;;;;;;;;;;;;;;;;5053902;28;19925;-83
2023/12/01 05:55:18;;;;;;;;;;;;;;;;;;5058402;28;19929;-81
2023/12/01 05:57:44;;;;;;;;;;;;;;;;;;5057610;28;19983;-83
2023/12/01 06:00:12;;;;;;;;;;;;;;;;;;5058450;28;19931;-81
2023/12/01 06:02:39;;;;;;;;;;;;;;;;;;5057862;28;19925;-82
2023/12/01 06:05:05;;;;;;;;;;;;;;;;;;5058121;28;19932;-82
2023/12/01 06:07:31;;;;;;;;;;;;;;;;;;5056523;28;19924;-82
2023/12/01 06:09:58;;;;;;;;;;;;;;;;;;5057095;28;19925;-82
2023/12/01 06:12:24;;;;;;;;;;;;;;;;;;5057139;28;20290;-82
2023/12/01 06:14:51;;;;;;;;;;;;;;;;;;5057602;28;20023;-83
2023/12/01 06:17:17;;;;;;;;;;;;;;;;;;5058108;28;20011;-80
2023/12/01 06:19:43;;;;;;;;;;;;;;;;;;5057327;28;20424;-82
2023/12/01 06:22:09;;;;;;;;;;;;;;;;;;5057205;28;19925;-83
2023/12/01 06:24:37;;;;;;;;;;;;;;;;;;5057748;28;20294;-82
2023/12/01 06:27:04;;;;;;;;;;;;;;;;;;5056151;28;19924;-82
2023/12/01 06:29:30;;;;;;;;;;;;;;;;;;5057666;28;19975;-82
2023/12/01 06:31:57;;;;;;;;;;;;;;;;;;5058013;28;20004;-82
2023/12/01 06:34:23;;;;;;;;;;;;;;;;;;5057465;28;19924;-83
2023/12/01 06:36:51;;;;;;;;;;;;;;;;;;5057230;28;19925;-81
2023/12/01 06:39:18;;;;;;;;;;;;;;;;;;5057409;28;19972;-82
2023/12/01 06:41:46;;;;;;;;;;;;;;;;;;5056435;28;19941;-83
2023/12/01 06:44:12;;;;;;;;;;;;;;;;;;5056868;28;19929;-80
2023/12/01 06:46:39;;;;;;;;;;;;;;;;;;5057274;28;19931;-80
2023/12/01 06:49:05;;;;;;;;;;;;;;;;;;5057757;28;19974;-82
2023/12/01 06:51:32;;;;;;;;;;;;;;;;;;5056814;28;19929;-81
2023/12/01 06:53:58;;;;;;;;;;;;;;;;;;5058744;28;19925;-81
2023/12/01 06:56:24;;;;;;;;;;;;;;;;;;5056810;28;19992;-82
2023/12/01 06:58:50;;;;;;;;;;;;;;;;;;5057733;28;19948;-80
2023/12/01 07:01:18;;;;;;;;;;;;;;;;;;5057373;28;20023;-81
2023/12/01 07:03:44;;;;;;;;;;;;;;;;;;5057406;28;19955;-80
2023/12/01 07:06:10;;;;;;;;;;;;;;;;;;5057375;28;19925;-82
2023/12/01 07:08:37;;;;;;;;;;;;;;;;;;5057231;28;20473;-83
2023/12/01 07:11:03;;;;;;;;;;;;;;;;;;5055894;28;19925;-83
2023/12/01 07:13:29;;;;;;;;;;;;;;;;;;5058050;28;19932;-81
2023/12/01 07:15:56;;;;;;;;;;;;;;;;;;5058180;28;19972;-80
2023/12/01 07:18:22;;;;;;;;;;;;;;;;;;5057291;28;20003;-82
2023/12/01 07:20:48;;;;;;;;;;;;;;;;;;5056361;28;19925;-81
2023/12/01 07:23:17;;;;;;;;;;;;;;;;;;5056077;28;19932;-80
2023/12/01 07:25:47;;;;;;;;;;;;;;;;;;5057699;28;19975;-81
2023/12/01 07:28:13;;;;;;;;;;;;;;;;;;5056780;28;19925;-82
2023/12/01 07:30:40;;;;;;;;;;;;;;;;;;5057618;28;19924;-81
2023/12/01 07:33:07;;;;;;;;;;;;;;;;;;5055789;28;19933;-81
2023/12/01 07:35:34;;;;;;;;;;;;;;;;;;5057152;28;19925;-82
2023/12/01 07:38:00;;;;;;;;;;;;;;;;;;5056949;28;19931;-82
2023/12/01 07:40:27;;;;;;;;;;;;;;;;;;5056918;28;19935;-82
2023/12/01 07:42:54;;;;;;;;;;;;;;;;;;5057257;28;19925;-79
2023/12/01 07:45:20;;;;;;;;;;;;;;;;;;5057125;28;19982;-82
2023/12/01 07:47:46;;;;;;;;;;;;;;;;;;5056757;28;19984;-82
2023/12/01 07:50:14;;;;;;;;;;;;;;;;;;5057524;28;20024;-82
2023/12/01 07:52:41;;;;;;;;;;;;;;;;;;5058475;28;19925;-81
2023/12/01 07:55:09;;;;;;;;;;;;;;;;;;5057743;28;19925;-82
2023/12/01 07:57:35;;;;;;;;;;;;;;;;;;5055728;28;19948;-82
2023/12/01 08:00:02;;;;;;;;;;;;;;;;;;5056933;28;19931;-81
2023/12/01 08:02:28;;;;;;;;;;;;;;;;;;5057206;28;19980;-83
2023/12/01 08:04:54;;;;;;;;;;;;;;;;;;5057787;28;19924;-82
2023/12/01 08:07:21;;;;;;;;;;;;;;;;;;5056464;28;20004;-82
2023/12/01 08:09:48;;;;;;;;;;;;;;;;;;5056911;28;20458;-83
2023/12/01 08:12:14;;;;;;;;;;;;;;;;;;5055119;28;20377;-83
2023/12/01 08:14:41;;;;;;;;;;;;;;;;;;5056828;28;20023;-82
2023/12/01 08:17:07;;;;;;;;;;;;;;;;;;5054018;28;19931;-82
2023/12/01 08:19:34;;;;;;;;;;;;;;;;;;5056609;28;20015;-82
2023/12/01 08:22:01;;;;;;;;;;;;;;;;;;5056372;28;20309;-82
2023/12/01 08:24:27;;;;;;;;;;;;;;;;;;5056858;28;19971;-82
2023/12/01 08:26:53;;;;;;;;;;;;;;;;;;5056457;28;20036;-82
2023/12/01 08:29:20;;;;;;;;;;;;;;;;;;5056812;28;19924;-82
2023/12/01 08:31:46;;;;;;;;;;;;;;;;;;5055258;28;19974;-82
2023/12/01 08:34:12;;;;;;;;;;;;;;;;;;5055179;28;19932;-83
2023/12/01 08:36:39;;;;;;;;;;;;;;;;;;5056517;28;20020;-82
2023/12/01 08:39:07;;;;;;;;;;;;;;;;;;5055917;28;19924;-84
2023/12/01 08:41:33;;;;;;;;;;;;;;;;;;5055973;28;20343;-82
2023/12/01 08:43:59;;;;;;;;;;;;;;;;;;5056975;28;19924;-82
2023/12/01 08:46:25;;;;;;;;;;;;;;;;;;5055134;28;19980;-82
2023/12/01 08:48:53;;;;;;;;;;;;;;;;;;5055396;28;19925;-82
2023/12/01 08:51:19;;;;;;;;;;;;;;;;;;5055243;28;20027;-82
2023/12/01 08:53:46;;;;;;;;;;;;;;;;;;5055151;28;19931;-82
2023/12/01 08:56:13;;;;;;;;;;;;;;;;;;5056033;28;19947;-82
2023/12/01 08:58:39;;;;;;;;;;;;;;;;;;5055046;28;19925;-83
2023/12/01 09:01:06;;;;;;;;;;;;;;;;;;5053012;28;19978;-83
2023/12/01 09:03:32;;;;;;;;;;;;;;;;;;5054862;28;19925;-83
2023/12/01 09:05:59;;;;;;;;;;;;;;;;;;5056258;28;19924;-82
2023/12/01 09:08:27;;;;;;;;;;;;;;;;;;5056522;28;19925;-83
2023/12/01 09:10:53;;;;;;;;;;;;;;;;;;5056738;28;19980;-83
2023/12/01 09:13:19;;;;;;;;;;;;;;;;;;5055684;28;19928;-82
2023/12/01 09:15:45;;;;;;;;;;;;;;;;;;5056482;28;19925;-82
2023/12/01 09:18:12;;;;;;;;;;;;;;;;;;5054131;28;19932;-83
2023/12/01 09:20:39;;;;;;;;;;;;;;;;;;5055018;28;20371;-82
2023/12/01 09:23:05;;;;;;;;;;;;;;;;;;5056481;28;20390;-83
2023/12/01 09:25:32;;;;;;;;;;;;;;;;;;5056622;28;19967;-83
2023/12/01 09:27:58;;;;;;;;;;;;;;;;;;5057896;28;20003;-81
2023/12/01 09:30:24;;;;;;;;;;;;;;;;;;5061740;28;20027;-81
2023/12/01 09:32:51;;;;;;;;;;;;;;;;;;5059953;28;20004;-83
2023/12/01 09:35:19;;;;;;;;;;;;;;;;;;5060103;28;19936;-83
2023/12/01 09:37:45;;;;;;;;;;;;;;;;;;5060736;28;19925;-82
2023/12/01 09:40:12;;;;;;;;;;;;;;;;;;5061728;28;20004;-81
2023/12/01 09:42:38;;;;;;;;;;;;;;;;;;5061414;28;20008;-81
2023/12/01 09:45:06;;;;;;;;;;;;;;;;;;5061387;28;20015;-81
2023/12/01 09:47:32;;;;;;;;;;;;;;;;;;5061609;28;20373;-81
2023/12/01 09:49:59;;;;;;;;;;;;;;;;;;5061616;28;19925;-81
2023/12/01 09:52:27;;;;;;;;;;;;;;;;;;5062064;28;19925;-81
2023/12/01 09:54:53;;;;;;;;;;;;;;;;;;5062058;28;20019;-81
2023/12/01 09:57:20;;;;;;;;;;;;;;;;;;5060475;28;20360;-81
2023/12/01 09:59:46;;;;;;;;;;;;;;;;;;5061476;28;19925;-82
2023/12/01 10:02:13;;;;;;;;;;;;;;;;;;5061284;28;20024;-81
2023/12/01 10:04:39;;;;;;;;;;;;;;;;;;5061656;28;19925;-81
2023/12/01 10:07:07;;;;;;;;;;;;;;;;;;5053463;28;19974;-82
2023/12/01 10:09:36;;;;;;;;;;;;;;;;;;5068223;28;19931;-81
2023/12/01 10:12:02;;;;;;;;;;;;;;;;;;5060547;28;19972;-81
2023/12/01 10:14:29;;;;;;;;;;;;;;;;;;5060554;28;19924;-82
2023/12/01 10:16:55;;;;;;;;;;;;;;;;;;5061549;28;20015;-84
2023/12/01 10:19:21;;;;;;;;;;;;;;;;;;5062537;28;19968;-81
2023/12/01 10:21:48;;;;;;;;;;;;;;;;;;5061158;28;20298;-81
2023/12/01 10:24:15;;;;;;;;;;;;;;;;;;5062444;28;19925;-81
2023/12/01 10:26:42;;;;;;;;;;;;;;;;;;5061989;28;20019;-82
2023/12/01 10:29:08;;;;;;;;;;;;;;;;;;5059866;28;20313;-84
2023/12/01 10:31:34;;;;;;;;;;;;;;;;;;5060223;28;19932;-81
2023/12/01 10:34:01;;;;;;;;;;;;;;;;;;5061635;28;20465;-82
2023/12/01 10:36:27;;;;;;;;;;;;;;;;;;5061847;28;20016;-82
2023/12/01 10:38:56;;;;;;;;;;;;;;;;;;5061065;28;19925;-81
2023/12/01 10:41:22;;;;;;;;;;;;;;;;;;5061257;28;20367;-81
2023/12/01 10:43:48;;;;;;;;;;;;;;;;;;5060380;28;20387;-83
2023/12/01 10:46:15;;;;;;;;;;;;;;;;;;5058661;28;19925;-83
2023/12/01 10:48:42;;;;;;;;;;;;;;;;;;5061081;28;20031;-81
2023/12/01 10:51:10;;;;;;;;;;;;;;;;;;5060405;28;19929;-81
2023/12/01 10:53:36;;;;;;;;;;;;;;;;;;5061674;28;19925;-81
2023/12/01 10:56:04;;;;;;;;;;;;;;;;;;5061661;28;20037;-82
2023/12/01 10:58:30;;;;;;;;;;;;;;;;;;5060460;28;19952;-82
2023/12/01 11:00:57;;;;;;;;;;;;;;;;;;5060873;28;19925;-82
2023/12/01 11:03:24;;;;;;;;;;;;;;;;;;5060443;28;19932;-82
2023/12/01 11:05:51;;;;;;;;;;;;;;;;;;5061643;28;20037;-80
2023/12/01 11:08:17;;;;;;;;;;;;;;;;;;5060760;28;19925;-84
2023/12/01 11:10:43;;;;;;;;;;;;;;;;;;5059782;28;19946;-83
2023/12/01 11:13:10;;;;;;;;;;;;;;;;;;5060224;28;19924;-82
2023/12/01 11:15:38;;;;;;;;;;;;;;;;;;5059891;28;19925;-83
2023/12/01 11:18:04;;;;;;;;;;;;;;;;;;5066982;28;19924;-83
2023/12/01 11:20:30;;;;;;;;;;;;;;;;;;5060875;28;19925;-83
2023/12/01 11:22:56;;;;;;;;;;;;;;;;;;5060746;28;19924;-83
2023/12/01 11:25:25;;;;;;;;;;;;;;;;;;5059606;28;19968;-82
2023/12/01 11:27:51;;;;;;;;;;;;;;;;;;5060483;28;20008;-83
2023/12/01 11:30:17;;;;;;;;;;;;;;;;;;5059128;28;19925;-82
2023/12/01 11:32:44;;;;;;;;;;;;;;;;;;5059498;28;19925;-82
2023/12/01 11:35:11;;;;;;;;;;;;;;;;;;5060217;28;20023;-83
2023/12/01 11:37:36;;;;;;;;;;;;;;;;;;5059300;28;19939;-83
2023/12/01 11:40:03;;;;;;;;;;;;;;;;;;5060541;28;20008;-82
2023/12/01 11:42:29;;;;;;;;;;;;;;;;;;5060029;28;19979;-83
2023/12/01 11:44:55;;;;;;;;;;;;;;;;;;5060244;28;20021;-82
2023/12/01 11:47:22;;;;;;;;;;;;;;;;;;5060170;28;19974;-82
2023/12/01 11:49:48;;;;;;;;;;;;;;;;;;5060909;28;20349;-83
2023/12/01 11:52:18;;;;;;;;;;;;;;;;;;5058655;28;20019;-83
2023/12/01 11:54:44;;;;;;;;;;;;;;;;;;5060425;28;19925;-82
2023/12/01 11:57:10;;;;;;;;;;;;;;;;;;5059191;28;19932;-82
2023/12/01 11:59:37;;;;;;;;;;;;;;;;;;5061024;28;19960;-83
2023/12/01 12:02:03;;;;;;;;;;;;;;;;;;5060367;28;19924;-82
2023/12/01 12:04:29;;;;;;;;;;;;;;;;;;5060324;28;19931;-82
2023/12/01 12:07:00;;;;;;;;;;;;;;;;;;5059266;28;19924;-83
2023/12/01 12:09:26;;;;;;;;;;;;;;;;;;5060295;28;19924;-83
2023/12/01 12:11:53;;;;;;;;;;;;;;;;;;5059730;28;20344;-83
2023/12/01 12:14:19;;;;;;;;;;;;;;;;;;5059572;28;20027;-82
2023/12/01 12:16:46;;;;;;;;;;;;;;;;;;5058793;28;20282;-83
2023/12/01 12:19:12;;;;;;;;;;;;;;;;;;5060300;28;20020;-82
2023/12/01 12:21:38;;;;;;;;;;;;;;;;;;5058346;28;19980;-83
2023/12/01 12:24:05;;;;;;;;;;;;;;;;;;5059397;28;20023;-83
2023/12/01 12:26:31;;;;;;;;;;;;;;;;;;5057761;28;19932;-82
2023/12/01 12:29:00;;;;;;;;;;;;;;;;;;5059766;28;20015;-82
2023/12/01 12:31:26;;;;;;;;;;;;;;;;;;5059268;28;19925;-82
2023/12/01 12:33:52;;;;;;;;;;;;;;;;;;5058886;28;19931;-83
2023/12/01 12:36:18;;;;;;;;;;;;;;;;;;5057520;28;19932;-82
2023/12/01 12:38:45;;;;;;;;;;;;;;;;;;5059465;28;19925;-82
2023/12/01 12:41:12;;;;;;;;;;;;;;;;;;5060040;28;20000;-83
2023/12/01 12:43:41;;;;;;;;;;;;;;;;;;5058975;28;19968;-81
2023/12/01 12:46:07;;;;;;;;;;;;;;;;;;5056950;28;19978;-82
2023/12/01 12:48:34;;;;;;;;;;;;;;;;;;5057990;28;19931;-82
2023/12/01 12:51:00;;;;;;;;;;;;;;;;;;5059189;28;19925;-82
2023/12/01 12:53:26;;;;;;;;;;;;;;;;;;5059957;28;20015;-84
2023/12/01 12:55:52;;;;;;;;;;;;;;;;;;5059432;28;19997;-82
2023/12/01 12:58:19;;;;;;;;;;;;;;;;;;5058918;28;20103;-83
2023/12/01 13:00:45;;;;;;;;;;;;;;;;;;5058905;28;19932;-82
2023/12/01 13:03:12;;;;;;;;;;;;;;;;;;5057140;28;20015;-84
2023/12/01 13:05:38;;;;;;;;;;;;;;;;;;5057746;28;20019;-83
2023/12/01 13:08:04;;;;;;;;;;;;;;;;;;5057184;28;20019;-83
2023/12/01 13:10:31;;;;;;;;;;;;;;;;;;5056498;28;19932;-81
2023/12/01 13:12:57;;;;;;;;;;;;;;;;;;5058889;28;19924;-82
2023/12/01 13:15:23;;;;;;;;;;;;;;;;;;5059400;28;19984;-82
2023/12/01 13:17:50;;;;;;;;;;;;;;;;;;5057461;28;20020;-81
2023/12/01 13:20:17;;;;;;;;;;;;;;;;;;5059232;28;19947;-81
2023/12/01 13:22:44;;;;;;;;;;;;;;;;;;5059095;28;20008;-81
2023/12/01 13:25:10;;;;;;;;;;;;;;;;;;5057400;28;19924;-82
2023/12/01 13:27:36;;;;;;;;;;;;;;;;;;5056812;28;19976;-83
2023/12/01 13:30:03;;;;;;;;;;;;;;;;;;5057305;28;19948;-82
2023/12/01 13:32:30;;;;;;;;;;;;;;;;;;5058352;28;19932;-80
2023/12/01 13:34:56;;;;;;;;;;;;;;;;;;5059278;28;19925;-83
2023/12/01 13:37:23;;;;;;;;;;;;;;;;;;5058960;28;19931;-82
2023/12/01 13:39:49;;;;;;;;;;;;;;;;;;5059832;28;19928;-82
2023/12/01 13:42:16;;;;;;;;;;;;;;;;;;5059034;28;20015;-82
2023/12/01 13:44:42;;;;;;;;;;;;;;;;;;5059454;28;20031;-81
2023/12/01 13:47:08;;;;;;;;;;;;;;;;;;5058713;28;20007;-81
2023/12/01 13:49:34;;;;;;;;;;;;;;;;;;5056437;28;19932;-81
2023/12/01 13:52:01;;;;;;;;;;;;;;;;;;5058677;28;20000;-82
2023/12/01 13:54:27;;;;;;;;;;;;;;;;;;5058236;28;19925;-81
2023/12/01 13:56:55;;;;;;;;;;;;;;;;;;5058643;28;20007;-82
2023/12/01 13:59:21;;;;;;;;;;;;;;;;;;5059069;28;20041;-82
2023/12/01 14:01:47;;;;;;;;;;;;;;;;;;5057806;28;19988;-82
2023/12/01 14:04:14;;;;;;;;;;;;;;;;;;5059495;28;20012;-81
2023/12/01 14:06:40;;;;;;;;;;;;;;;;;;5058778;28;20007;-81
2023/12/01 14:09:06;;;;;;;;;;;;;;;;;;5058816;28;19931;-83
2023/12/01 14:11:34;;;;;;;;;;;;;;;;;;5058821;28;20012;-82
2023/12/01 14:14:01;;;;;;;;;;;;;;;;;;5058677;28;19964;-82
2023/12/01 14:16:35;;;;;;;;;;;;;;;;;;5060469;28;20008;-80
2023/12/01 14:19:01;;;;;;;;;;;;;;;;;;5061548;28;19932;-81
2023/12/01 14:21:27;;;;;;;;;;;;;;;;;;5060186;28;20038;-82
2023/12/01 14:23:54;;;;;;;;;;;;;;;;;;5059519;28;20298;-82
2023/12/01 14:26:20;;;;;;;;;;;;;;;;;;5061185;28;19925;-81
2023/12/01 14:28:47;;;;;;;;;;;;;;;;;;5061922;28;20027;-81
2023/12/01 14:31:13;;;;;;;;;;;;;;;;;;5060051;28;19925;-82
2023/12/01 14:33:40;;;;;;;;;;;;;;;;;;5061349;28;19929;-81
2023/12/01 14:36:06;;;;;;;;;;;;;;;;;;5061523;28;20016;-82
2023/12/01 14:38:32;;;;;;;;;;;;;;;;;;5061656;28;19925;-82
2023/12/01 14:40:59;;;;;;;;;;;;;;;;;;5061487;28;19997;-81
2023/12/01 14:43:25;;;;;;;;;;;;;;;;;;5060798;28;19925;-83
2023/12/01 14:45:52;;;;;;;;;;;;;;;;;;5057745;28;19932;-80
2023/12/01 14:48:18;;;;;;;;;;;;;;;;;;5059271;28;20305;-81
2023/12/01 14:50:49;;;;;;;;;;;;;;;;;;5060574;28;20023;-81
2023/12/01 14:53:16;;;;;;;;;;;;;;;;;;5058843;28;19924;-83
2023/12/01 14:55:44;;;;;;;;;;;;;;;;;;5060430;28;19929;-81
2023/12/01 14:58:10;;;;;;;;;;;;;;;;;;5058987;28;20007;-82
2023/12/01 15:00:37;;;;;;;;;;;;;;;;;;5059288;28;20027;-82
2023/12/01 15:03:04;;;;;;;;;;;;;;;;;;5060257;28;19948;-81
2023/12/01 15:05:30;;;;;;;;;;;;;;;;;;5061467;28;19929;-82
2023/12/01 15:07:56;;;;;;;;;;;;;;;;;;5060560;28;20015;-81
2023/12/01 15:10:22;;;;;;;;;;;;;;;;;;5060324;28;19925;-81
2023/12/01 15:12:51;;;;;;;;;;;;;;;;;;5059097;28;20402;-82
2023/12/01 15:15:18;;;;;;;;;;;;;;;;;;5060456;28;20298;-82
2023/12/01 15:17:44;;;;;;;;;;;;;;;;;;5061143;28;20011;-82
2023/12/01 15:20:11;;;;;;;;;;;;;;;;;;5061359;28;19968;-81
2023/12/01 15:22:39;;;;;;;;;;;;;;;;;;5061359;28;19928;-82
2023/12/01 15:25:06;;;;;;;;;;;;;;;;;;5059909;28;19992;-82
2023/12/01 15:27:32;;;;;;;;;;;;;;;;;;5061190;28;20371;-83
2023/12/01 15:29:59;;;;;;;;;;;;;;;;;;5060935;28;19960;-81
2023/12/01 15:32:25;;;;;;;;;;;;;;;;;;5060709;28;20012;-82
2023/12/01 15:34:51;;;;;;;;;;;;;;;;;;5059810;28;19924;-81
2023/12/01 15:37:18;;;;;;;;;;;;;;;;;;5055161;28;19935;-81
2023/12/01 15:39:44;;;;;;;;;;;;;;;;;;5056556;28;19948;-80
2023/12/01 15:42:10;;;;;;;;;;;;;;;;;;5054490;28;19960;-80
2023/12/01 15:44:37;;;;;;;;;;;;;;;;;;5057787;28;20011;-83
2023/12/01 15:47:03;;;;;;;;;;;;;;;;;;5055574;28;19925;-83
2023/12/01 15:49:30;;;;;;;;;;;;;;;;;;5055100;28;19960;-82
2023/12/01 15:51:56;;;;;;;;;;;;;;;;;;5055928;28;20020;-81
2023/12/01 15:54:23;;;;;;;;;;;;;;;;;;5056355;28;19928;-81
2023/12/01 15:56:49;;;;;;;;;;;;;;;;;;5055844;28;19948;-80
2023/12/01 15:59:15;;;;;;;;;;;;;;;;;;5055815;28;20470;-83
2023/12/01 16:01:41;;;;;;;;;;;;;;;;;;5054265;28;19931;-80
2023/12/01 16:04:08;;;;;;;;;;;;;;;;;;5055312;28;19925;-80
2023/12/01 16:06:36;;;;;;;;;;;;;;;;;;5055132;28;20007;-83
2023/12/01 16:09:02;;;;;;;;;;;;;;;;;;5055238;28;19931;-81
2023/12/01 16:11:28;;;;;;;;;;;;;;;;;;5054973;28;19925;-80
2023/12/01 16:13:55;;;;;;;;;;;;;;;;;;5055292;28;19932;-81
2023/12/01 16:16:21;;;;;;;;;;;;;;;;;;5055349;28;19924;-81
2023/12/01 16:18:47;;;;;;;;;;;;;;;;;;5053893;28;19924;-81
2023/12/01 16:21:13;;;;;;;;;;;;;;;;;;5054828;28;20466;-81
2023/12/01 16:23:40;;;;;;;;;;;;;;;;;;5055232;28;20015;-81
2023/12/01 16:26:06;;;;;;;;;;;;;;;;;;5054863;28;20279;-81
2023/12/01 16:28:32;;;;;;;;;;;;;;;;;;5056005;28;20015;-81
2023/12/01 16:30:58;;;;;;;;;;;;;;;;;;5055794;28;20023;-83
2023/12/01 16:33:25;;;;;;;;;;;;;;;;;;5055110;28;20405;-81
2023/12/01 16:35:51;;;;;;;;;;;;;;;;;;5055020;28;20019;-81
2023/12/01 16:38:17;;;;;;;;;;;;;;;;;;5053799;28;20318;-81
2023/12/01 16:40:44;;;;;;;;;;;;;;;;;;5054324;28;19931;-82